sensor_id;sensor_type;location;lat;lon;timestamp;P1;P4;P2;P0;N10;N4;N25;N1;N05;TS
67700;SPS30;55380;54.156;18.708;2023-04-25T00:00:00;6.4;;6.4;6.0;;;;;;
67700;SPS30;55380;54.156;18.708;2023-04-25T00:02:00;6.5;;6.5;6.2;;;;;;
67700;SPS30;55380;54.156;18.708;2023-04-25T00:04:00;6.7;;6.7;6.4;;;;;;
67700;SPS30;55380;54.156;18.708;2023-04-25T00:06:00;6.6;;6.6;6.2;;;;;;
67700;SPS30;55380;54.156;18.708;2023-04-25T00:08:00;6.8;;6.8;6.4;;;;;;
67700;SPS30;55380;54.156;18.708;2023-04-25T00:10:00;6.7;;6.7;6.3;;;;;;
67700;SPS30;55380;54.156;18.708;2023-04-25T00:12:00;6.6;;6.6;6.3;;;;;;
67700;SPS30;55380;54.156;18.708;2023-04-25T00:14:00;6.9;;6.9;6.6;;;;;;
67700;SPS30;55380;54.156;18.708;2023-04-25T00:16:00;7.0;;7.0;6.6;;;;;;
67700;SPS30;55380;54.156;18.708;2023-04-25T00:18:00;6.8;;6.8;6.4;;;;;;
67700;SPS30;55380;54.156;18.708;2023-04-25T00:20:00;6.8;;6.8;6.4;;;;;;
67700;SPS30;55380;54.156;18.708;2023-04-25T00:22:00;6.4;;6.4;6.0;;;;;;
67700;SPS30;55380;54.156;18.708;2023-04-25T00:24:00;6.8;;6.8;6.4;;;;;;
67700;SPS30;55380;54.156;18.708;2023-04-25T00:26:00;6.9;;6.9;6.5;;;;;;
67700;SPS30;55380;54.156;18.708;2023-04-25T00:28:00;6.7;;6.7;6.4;;;;;;
67700;SPS30;55380;54.156;18.708;2023-04-25T00:30:00;6.7;;6.7;6.3;;;;;;
67700;SPS30;55380;54.156;18.708;2023-04-25T00:32:00;6.0;;6.0;5.7;;;;;;
67700;SPS30;55380;54.156;18.708;2023-04-25T00:34:00;6.1;;6.1;5.8;;;;;;
67700;SPS30;55380;54.156;18.708;2023-04-25T00:36:00;6.1;;6.1;5.8;;;;;;
67700;SPS30;55380;54.156;18.708;2023-04-25T00:38:00;5.9;;5.9;5.6;;;;;;
67700;SPS30;55380;54.156;18.708;2023-04-25T00:40:00;5.7;;5.7;5.4;;;;;;
67700;SPS30;55380;54.156;18.708;2023-04-25T00:42:00;5.8;;5.8;5.5;;;;;;
67700;SPS30;55380;54.156;18.708;2023-04-25T00:44:00;5.6;;5.6;5.3;;;;;;
67700;SPS30;55380;54.156;18.708;2023-04-25T00:46:00;5.4;;5.4;5.1;;;;;;
67700;SPS30;55380;54.156;18.708;2023-04-25T00:48:00;5.2;;5.2;5.0;;;;;;
67700;SPS30;55380;54.156;18.708;2023-04-25T00:50:00;5.3;;5.3;5.1;;;;;;
67700;SPS30;55380;54.156;18.708;2023-04-25T00:52:00;5.3;;5.3;5.0;;;;;;
67700;SPS30;55380;54.156;18.708;2023-04-25T00:54:00;5.4;;5.4;5.2;;;;;;
67700;SPS30;55380;54.156;18.708;2023-04-25T00:56:00;5.2;;5.2;4.9;;;;;;
67700;SPS30;55380;54.156;18.708;2023-04-25T00:58:00;5.1;;5.1;4.8;;;;;;
67700;SPS30;55380;54.156;18.708;2023-04-25T01:00:00;5.4;;5.4;5.1;;;;;;
67700;SPS30;55380;54.156;18.708;2023-04-25T01:02:00;5.0;;5.0;4.7;;;;;;
67700;SPS30;55380;54.156;18.708;2023-04-25T01:04:00;5.4;;5.4;5.1;;;;;;
67700;SPS30;55380;54.156;18.708;2023-04-25T01:06:00;5.2;;5.2;4.9;;;;;;
67700;SPS30;55380;54.156;18.708;2023-04-25T01:08:00;4.9;;4.9;4.6;;;;;;
67700;SPS30;55380;54.156;18.708;2023-04-25T01:10:00;5.0;;5.0;4.7;;;;;;
67700;SPS30;55380;54.156;18.708;2023-04-25T01:12:00;5.1;;5.1;4.8;;;;;;
67700;SPS30;55380;54.156;18.708;2023-04-25T01:14:00;5.1;;5.1;4.8;;;;;;
67700;SPS30;55380;54.156;18.708;2023-04-25T01:16:00;4.7;;4.7;4.5;;;;;;
67700;SPS30;55380;54.156;18.708;2023-04-25T01:18:00;5.1;;5.1;4.8;;;;;;
67700;SPS30;55380;54.156;18.708;2023-04-25T01:20:01;5.3;;5.3;5.0;;;;;;
67700;SPS30;55380;54.156;18.708;2023-04-25T01:22:00;5.0;;5.0;4.7;;;;;;
67700;SPS30;55380;54.156;18.708;2023-04-25T01:24:00;4.7;;4.7;4.5;;;;;;
67700;SPS30;55380;54.156;18.708;2023-04-25T01:26:00;4.7;;4.7;4.4;;;;;;
67700;SPS30;55380;54.156;18.708;2023-04-25T01:28:00;4.8;;4.8;4.5;;;;;;
67700;SPS30;55380;54.156;18.708;2023-04-25T01:30:00;4.9;;4.9;4.6;;;;;;
67700;SPS30;55380;54.156;18.708;2023-04-25T01:32:00;4.9;;4.9;4.6;;;;;;
67700;SPS30;55380;54.156;18.708;2023-04-25T01:34:00;4.7;;4.7;4.5;;;;;;
67700;SPS30;55380;54.156;18.708;2023-04-25T01:36:00;5.1;;5.1;4.8;;;;;;
67700;SPS30;55380;54.156;18.708;2023-04-25T01:38:00;4.5;;4.5;4.3;;;;;;
67700;SPS30;55380;54.156;18.708;2023-04-25T01:40:00;4.8;;4.8;4.6;;;;;;
67700;SPS30;55380;54.156;18.708;2023-04-25T01:42:00;4.9;;4.9;4.6;;;;;;
67700;SPS30;55380;54.156;18.708;2023-04-25T01:44:00;4.8;;4.8;4.6;;;;;;
67700;SPS30;55380;54.156;18.708;2023-04-25T01:46:00;5.0;;5.0;4.7;;;;;;
67700;SPS30;55380;54.156;18.708;2023-04-25T01:48:00;4.7;;4.7;4.5;;;;;;
67700;SPS30;55380;54.156;18.708;2023-04-25T01:50:00;4.4;;4.4;4.2;;;;;;
67700;SPS30;55380;54.156;18.708;2023-04-25T01:52:00;4.5;;4.5;4.2;;;;;;
67700;SPS30;55380;54.156;18.708;2023-04-25T01:54:00;4.7;;4.7;4.4;;;;;;
67700;SPS30;55380;54.156;18.708;2023-04-25T01:56:00;4.6;;4.6;4.4;;;;;;
67700;SPS30;55380;54.156;18.708;2023-04-25T01:58:00;4.5;;4.5;4.2;;;;;;
67700;SPS30;55380;54.156;18.708;2023-04-25T02:00:01;4.7;;4.7;4.4;;;;;;
67700;SPS30;55380;54.156;18.708;2023-04-25T02:02:00;4.8;;4.8;4.5;;;;;;
67700;SPS30;55380;54.156;18.708;2023-04-25T02:04:00;4.4;;4.4;4.2;;;;;;
67700;SPS30;55380;54.156;18.708;2023-04-25T02:06:00;4.6;;4.6;4.4;;;;;;
67700;SPS30;55380;54.156;18.708;2023-04-25T02:08:00;4.6;;4.6;4.4;;;;;;
67700;SPS30;55380;54.156;18.708;2023-04-25T02:10:00;4.6;;4.6;4.3;;;;;;
67700;SPS30;55380;54.156;18.708;2023-04-25T02:12:00;4.6;;4.6;4.3;;;;;;
67700;SPS30;55380;54.156;18.708;2023-04-25T02:14:00;4.9;;4.9;4.6;;;;;;
67700;SPS30;55380;54.156;18.708;2023-04-25T02:16:00;4.7;;4.7;4.5;;;;;;
67700;SPS30;55380;54.156;18.708;2023-04-25T02:18:00;4.5;;4.5;4.2;;;;;;
67700;SPS30;55380;54.156;18.708;2023-04-25T02:20:00;4.6;;4.6;4.4;;;;;;
67700;SPS30;55380;54.156;18.708;2023-04-25T02:22:00;4.5;;4.5;4.3;;;;;;
67700;SPS30;55380;54.156;18.708;2023-04-25T02:24:00;5.0;;5.0;4.7;;;;;;
67700;SPS30;55380;54.156;18.708;2023-04-25T02:26:00;4.8;;4.8;4.5;;;;;;
67700;SPS30;55380;54.156;18.708;2023-04-25T02:28:00;4.8;;4.8;4.6;;;;;;
67700;SPS30;55380;54.156;18.708;2023-04-25T02:30:00;4.9;;4.9;4.6;;;;;;
67700;SPS30;55380;54.156;18.708;2023-04-25T02:32:00;5.2;;5.2;4.9;;;;;;
67700;SPS30;55380;54.156;18.708;2023-04-25T02:34:00;4.9;;4.9;4.7;;;;;;
67700;SPS30;55380;54.156;18.708;2023-04-25T02:36:00;5.3;;5.3;5.1;;;;;;
67700;SPS30;55380;54.156;18.708;2023-04-25T02:38:00;5.5;;5.5;5.2;;;;;;
67700;SPS30;55380;54.156;18.708;2023-04-25T02:40:00;5.7;;5.7;5.4;;;;;;
67700;SPS30;55380;54.156;18.708;2023-04-25T02:42:00;5.4;;5.4;5.1;;;;;;
67700;SPS30;55380;54.156;18.708;2023-04-25T02:44:00;5.6;;5.6;5.3;;;;;;
67700;SPS30;55380;54.156;18.708;2023-04-25T02:46:00;5.6;;5.6;5.3;;;;;;
67700;SPS30;55380;54.156;18.708;2023-04-25T02:48:00;5.6;;5.6;5.3;;;;;;
67700;SPS30;55380;54.156;18.708;2023-04-25T02:50:00;5.6;;5.6;5.3;;;;;;
67700;SPS30;55380;54.156;18.708;2023-04-25T02:52:00;5.7;;5.7;5.4;;;;;;
67700;SPS30;55380;54.156;18.708;2023-04-25T02:54:00;5.7;;5.7;5.4;;;;;;
67700;SPS30;55380;54.156;18.708;2023-04-25T02:56:00;5.9;;5.9;5.6;;;;;;
67700;SPS30;55380;54.156;18.708;2023-04-25T02:58:00;5.5;;5.5;5.2;;;;;;
67700;SPS30;55380;54.156;18.708;2023-04-25T03:00:00;5.7;;5.7;5.4;;;;;;
67700;SPS30;55380;54.156;18.708;2023-04-25T03:02:00;5.7;;5.7;5.4;;;;;;
67700;SPS30;55380;54.156;18.708;2023-04-25T03:04:00;5.4;;5.4;5.1;;;;;;
67700;SPS30;55380;54.156;18.708;2023-04-25T03:06:00;5.7;;5.7;5.4;;;;;;
67700;SPS30;55380;54.156;18.708;2023-04-25T03:08:00;5.6;;5.6;5.3;;;;;;
67700;SPS30;55380;54.156;18.708;2023-04-25T03:10:00;5.3;;5.3;5.0;;;;;;
67700;SPS30;55380;54.156;18.708;2023-04-25T03:12:00;5.1;;5.1;4.8;;;;;;
67700;SPS30;55380;54.156;18.708;2023-04-25T03:14:00;5.5;;5.5;5.2;;;;;;
67700;SPS30;55380;54.156;18.708;2023-04-25T03:16:00;5.2;;5.2;4.9;;;;;;
67700;SPS30;55380;54.156;18.708;2023-04-25T03:18:00;5.6;;5.6;5.3;;;;;;
67700;SPS30;55380;54.156;18.708;2023-04-25T03:20:00;5.9;;5.9;5.6;;;;;;
67700;SPS30;55380;54.156;18.708;2023-04-25T03:22:00;5.7;;5.7;5.4;;;;;;
67700;SPS30;55380;54.156;18.708;2023-04-25T03:24:00;5.5;;5.5;5.2;;;;;;
67700;SPS30;55380;54.156;18.708;2023-04-25T03:26:00;6.1;;6.1;5.7;;;;;;
67700;SPS30;55380;54.156;18.708;2023-04-25T03:28:00;5.5;;5.5;5.2;;;;;;
67700;SPS30;55380;54.156;18.708;2023-04-25T03:30:00;6.0;;6.0;5.7;;;;;;
67700;SPS30;55380;54.156;18.708;2023-04-25T03:32:00;5.8;;5.8;5.5;;;;;;
67700;SPS30;55380;54.156;18.708;2023-04-25T03:34:00;5.8;;5.8;5.5;;;;;;
67700;SPS30;55380;54.156;18.708;2023-04-25T03:36:00;6.0;;6.0;5.7;;;;;;
67700;SPS30;55380;54.156;18.708;2023-04-25T03:38:00;5.6;;5.6;5.3;;;;;;
67700;SPS30;55380;54.156;18.708;2023-04-25T03:40:00;6.4;;6.4;6.0;;;;;;
67700;SPS30;55380;54.156;18.708;2023-04-25T03:42:00;6.1;;6.1;5.8;;;;;;
67700;SPS30;55380;54.156;18.708;2023-04-25T03:44:00;6.0;;6.0;5.7;;;;;;
67700;SPS30;55380;54.156;18.708;2023-04-25T03:46:00;6.2;;6.2;5.9;;;;;;
67700;SPS30;55380;54.156;18.708;2023-04-25T03:48:00;6.0;;6.0;5.7;;;;;;
67700;SPS30;55380;54.156;18.708;2023-04-25T03:50:00;5.8;;5.8;5.5;;;;;;
67700;SPS30;55380;54.156;18.708;2023-04-25T03:52:00;6.0;;6.0;5.7;;;;;;
67700;SPS30;55380;54.156;18.708;2023-04-25T03:54:00;5.5;;5.5;5.2;;;;;;
67700;SPS30;55380;54.156;18.708;2023-04-25T03:56:00;5.6;;5.6;5.3;;;;;;
67700;SPS30;55380;54.156;18.708;2023-04-25T03:58:00;5.7;;5.7;5.4;;;;;;
67700;SPS30;55380;54.156;18.708;2023-04-25T04:00:00;5.2;;5.2;4.9;;;;;;
67700;SPS30;55380;54.156;18.708;2023-04-25T04:02:00;5.9;;5.9;5.6;;;;;;
67700;SPS30;55380;54.156;18.708;2023-04-25T04:04:00;5.6;;5.6;5.3;;;;;;
67700;SPS30;55380;54.156;18.708;2023-04-25T04:06:00;5.5;;5.5;5.2;;;;;;
67700;SPS30;55380;54.156;18.708;2023-04-25T04:08:00;5.4;;5.4;5.1;;;;;;
67700;SPS30;55380;54.156;18.708;2023-04-25T04:10:00;5.4;;5.4;5.1;;;;;;
67700;SPS30;55380;54.156;18.708;2023-04-25T04:12:00;5.4;;5.4;5.1;;;;;;
67700;SPS30;55380;54.156;18.708;2023-04-25T04:14:00;5.4;;5.4;5.1;;;;;;
67700;SPS30;55380;54.156;18.708;2023-04-25T04:16:00;5.5;;5.5;5.2;;;;;;
67700;SPS30;55380;54.156;18.708;2023-04-25T04:18:00;5.4;;5.4;5.1;;;;;;
67700;SPS30;55380;54.156;18.708;2023-04-25T04:20:00;5.4;;5.4;5.1;;;;;;
67700;SPS30;55380;54.156;18.708;2023-04-25T04:22:00;6.1;;6.1;5.8;;;;;;
67700;SPS30;55380;54.156;18.708;2023-04-25T04:24:00;5.6;;5.6;5.3;;;;;;
67700;SPS30;55380;54.156;18.708;2023-04-25T04:26:00;5.7;;5.7;5.4;;;;;;
67700;SPS30;55380;54.156;18.708;2023-04-25T04:28:00;5.6;;5.6;5.3;;;;;;
67700;SPS30;55380;54.156;18.708;2023-04-25T04:30:00;5.7;;5.7;5.4;;;;;;
67700;SPS30;55380;54.156;18.708;2023-04-25T04:32:00;6.0;;6.0;5.7;;;;;;
67700;SPS30;55380;54.156;18.708;2023-04-25T04:34:00;5.7;;5.7;5.4;;;;;;
67700;SPS30;55380;54.156;18.708;2023-04-25T04:36:00;5.9;;5.9;5.5;;;;;;
67700;SPS30;55380;54.156;18.708;2023-04-25T04:38:00;5.4;;5.4;5.1;;;;;;
67700;SPS30;55380;54.156;18.708;2023-04-25T04:40:00;6.1;;6.1;5.8;;;;;;
67700;SPS30;55380;54.156;18.708;2023-04-25T04:42:00;5.3;;5.3;5.0;;;;;;
67700;SPS30;55380;54.156;18.708;2023-04-25T04:44:00;5.5;;5.5;5.2;;;;;;
67700;SPS30;55380;54.156;18.708;2023-04-25T04:46:00;5.4;;5.4;5.1;;;;;;
67700;SPS30;55380;54.156;18.708;2023-04-25T04:48:00;5.4;;5.4;5.1;;;;;;
67700;SPS30;55380;54.156;18.708;2023-04-25T04:50:00;5.7;;5.7;5.4;;;;;;
67700;SPS30;55380;54.156;18.708;2023-04-25T04:52:00;5.5;;5.5;5.2;;;;;;
67700;SPS30;55380;54.156;18.708;2023-04-25T04:54:00;5.5;;5.5;5.2;;;;;;
67700;SPS30;55380;54.156;18.708;2023-04-25T04:56:00;5.2;;5.2;4.9;;;;;;
67700;SPS30;55380;54.156;18.708;2023-04-25T04:58:00;5.5;;5.5;5.2;;;;;;
67700;SPS30;55380;54.156;18.708;2023-04-25T05:00:00;5.4;;5.4;5.2;;;;;;
67700;SPS30;55380;54.156;18.708;2023-04-25T05:02:00;5.5;;5.5;5.2;;;;;;
67700;SPS30;55380;54.156;18.708;2023-04-25T05:04:00;5.7;;5.7;5.4;;;;;;
67700;SPS30;55380;54.156;18.708;2023-04-25T05:06:00;5.5;;5.5;5.2;;;;;;
67700;SPS30;55380;54.156;18.708;2023-04-25T05:08:00;5.7;;5.7;5.4;;;;;;
67700;SPS30;55380;54.156;18.708;2023-04-25T05:10:00;5.4;;5.4;5.1;;;;;;
67700;SPS30;55380;54.156;18.708;2023-04-25T05:12:00;5.3;;5.3;5.0;;;;;;
67700;SPS30;55380;54.156;18.708;2023-04-25T05:14:00;5.3;;5.3;5.0;;;;;;
67700;SPS30;55380;54.156;18.708;2023-04-25T05:16:00;5.2;;5.2;4.9;;;;;;
67700;SPS30;55380;54.156;18.708;2023-04-25T05:18:01;5.5;;5.5;5.2;;;;;;
67700;SPS30;55380;54.156;18.708;2023-04-25T05:20:00;5.1;;5.1;4.9;;;;;;
67700;SPS30;55380;54.156;18.708;2023-04-25T05:22:00;5.4;;5.4;5.1;;;;;;
67700;SPS30;55380;54.156;18.708;2023-04-25T05:24:00;5.4;;5.4;5.1;;;;;;
67700;SPS30;55380;54.156;18.708;2023-04-25T05:26:00;5.1;;5.1;4.8;;;;;;
67700;SPS30;55380;54.156;18.708;2023-04-25T05:28:00;5.4;;5.4;5.1;;;;;;
67700;SPS30;55380;54.156;18.708;2023-04-25T05:30:00;5.2;;5.2;4.9;;;;;;
67700;SPS30;55380;54.156;18.708;2023-04-25T05:32:00;5.0;;5.0;4.8;;;;;;
67700;SPS30;55380;54.156;18.708;2023-04-25T05:34:00;4.3;;4.3;4.0;;;;;;
67700;SPS30;55380;54.156;18.708;2023-04-25T05:36:00;4.5;;4.5;4.3;;;;;;
67700;SPS30;55380;54.156;18.708;2023-04-25T05:38:00;4.9;;4.9;4.6;;;;;;
67700;SPS30;55380;54.156;18.708;2023-04-25T05:40:00;4.5;;4.5;4.3;;;;;;
67700;SPS30;55380;54.156;18.708;2023-04-25T05:42:00;4.8;;4.8;4.5;;;;;;
67700;SPS30;55380;54.156;18.708;2023-04-25T05:44:00;5.1;;5.1;4.8;;;;;;
67700;SPS30;55380;54.156;18.708;2023-04-25T05:46:00;5.2;;5.2;4.9;;;;;;
67700;SPS30;55380;54.156;18.708;2023-04-25T05:48:00;5.3;;5.3;5.0;;;;;;
67700;SPS30;55380;54.156;18.708;2023-04-25T05:50:00;4.9;;4.9;4.6;;;;;;
67700;SPS30;55380;54.156;18.708;2023-04-25T05:52:00;5.2;;5.2;4.9;;;;;;
67700;SPS30;55380;54.156;18.708;2023-04-25T05:54:00;5.8;;5.8;5.5;;;;;;
67700;SPS30;55380;54.156;18.708;2023-04-25T05:56:00;5.8;;5.8;5.5;;;;;;
67700;SPS30;55380;54.156;18.708;2023-04-25T05:58:00;6.1;;6.1;5.8;;;;;;
67700;SPS30;55380;54.156;18.708;2023-04-25T06:00:00;5.8;;5.8;5.5;;;;;;
67700;SPS30;55380;54.156;18.708;2023-04-25T06:02:00;6.0;;6.0;5.7;;;;;;
67700;SPS30;55380;54.156;18.708;2023-04-25T06:04:00;5.7;;5.7;5.4;;;;;;
67700;SPS30;55380;54.156;18.708;2023-04-25T06:06:00;6.0;;6.0;5.7;;;;;;
67700;SPS30;55380;54.156;18.708;2023-04-25T06:08:00;6.3;;6.3;6.0;;;;;;
67700;SPS30;55380;54.156;18.708;2023-04-25T06:10:00;6.2;;6.2;5.9;;;;;;
67700;SPS30;55380;54.156;18.708;2023-04-25T06:12:00;6.4;;6.4;6.1;;;;;;
67700;SPS30;55380;54.156;18.708;2023-04-25T06:14:00;6.7;;6.7;6.3;;;;;;
67700;SPS30;55380;54.156;18.708;2023-04-25T06:16:00;7.3;;7.3;6.9;;;;;;
67700;SPS30;55380;54.156;18.708;2023-04-25T06:18:00;6.4;;6.4;6.0;;;;;;
67700;SPS30;55380;54.156;18.708;2023-04-25T06:20:00;6.4;;6.4;6.1;;;;;;
67700;SPS30;55380;54.156;18.708;2023-04-25T06:22:00;6.1;;6.1;5.7;;;;;;
67700;SPS30;55380;54.156;18.708;2023-04-25T06:24:00;6.3;;6.3;5.9;;;;;;
67700;SPS30;55380;54.156;18.708;2023-04-25T06:26:00;6.1;;6.1;5.8;;;;;;
67700;SPS30;55380;54.156;18.708;2023-04-25T06:28:00;6.1;;6.1;5.8;;;;;;
67700;SPS30;55380;54.156;18.708;2023-04-25T06:30:00;5.7;;5.7;5.4;;;;;;
67700;SPS30;55380;54.156;18.708;2023-04-25T06:32:00;6.3;;6.3;6.0;;;;;;
67700;SPS30;55380;54.156;18.708;2023-04-25T06:34:00;5.8;;5.8;5.5;;;;;;
67700;SPS30;55380;54.156;18.708;2023-04-25T06:36:00;5.8;;5.8;5.5;;;;;;
67700;SPS30;55380;54.156;18.708;2023-04-25T06:38:00;5.8;;5.8;5.5;;;;;;
67700;SPS30;55380;54.156;18.708;2023-04-25T06:40:00;5.9;;5.9;5.6;;;;;;
67700;SPS30;55380;54.156;18.708;2023-04-25T06:42:00;5.3;;5.3;5.0;;;;;;
67700;SPS30;55380;54.156;18.708;2023-04-25T06:44:00;5.4;;5.4;5.1;;;;;;
67700;SPS30;55380;54.156;18.708;2023-04-25T06:46:00;5.5;;5.5;5.2;;;;;;
67700;SPS30;55380;54.156;18.708;2023-04-25T06:48:00;5.4;;5.4;5.1;;;;;;
67700;SPS30;55380;54.156;18.708;2023-04-25T06:50:00;5.2;;5.2;4.9;;;;;;
67700;SPS30;55380;54.156;18.708;2023-04-25T06:52:00;5.7;;5.7;5.4;;;;;;
67700;SPS30;55380;54.156;18.708;2023-04-25T06:54:00;5.5;;5.4;5.1;;;;;;
67700;SPS30;55380;54.156;18.708;2023-04-25T06:56:00;5.4;;5.4;5.1;;;;;;
67700;SPS30;55380;54.156;18.708;2023-04-25T06:58:00;5.5;;5.5;5.2;;;;;;
67700;SPS30;55380;54.156;18.708;2023-04-25T07:00:00;5.5;;5.5;5.2;;;;;;
67700;SPS30;55380;54.156;18.708;2023-04-25T07:02:00;5.6;;5.6;5.3;;;;;;
67700;SPS30;55380;54.156;18.708;2023-04-25T07:04:00;6.0;;6.0;5.7;;;;;;
67700;SPS30;55380;54.156;18.708;2023-04-25T07:06:00;6.0;;6.0;5.7;;;;;;
67700;SPS30;55380;54.156;18.708;2023-04-25T07:08:00;5.8;;5.8;5.5;;;;;;
67700;SPS30;55380;54.156;18.708;2023-04-25T07:10:00;5.9;;5.9;5.6;;;;;;
67700;SPS30;55380;54.156;18.708;2023-04-25T07:12:00;5.5;;5.5;5.2;;;;;;
67700;SPS30;55380;54.156;18.708;2023-04-25T07:14:00;5.9;;5.9;5.6;;;;;;
67700;SPS30;55380;54.156;18.708;2023-04-25T07:16:00;5.4;;5.4;5.1;;;;;;
67700;SPS30;55380;54.156;18.708;2023-04-25T07:18:00;5.2;;5.2;4.9;;;;;;
67700;SPS30;55380;54.156;18.708;2023-04-25T07:20:00;5.8;;5.8;5.5;;;;;;
67700;SPS30;55380;54.156;18.708;2023-04-25T07:22:00;5.4;;5.4;5.1;;;;;;
67700;SPS30;55380;54.156;18.708;2023-04-25T07:24:00;5.4;;5.4;5.1;;;;;;
67700;SPS30;55380;54.156;18.708;2023-04-25T07:26:00;5.3;;5.3;5.1;;;;;;
67700;SPS30;55380;54.156;18.708;2023-04-25T07:28:00;5.1;;5.1;4.8;;;;;;
67700;SPS30;55380;54.156;18.708;2023-04-25T07:30:00;5.3;;5.3;5.0;;;;;;
67700;SPS30;55380;54.156;18.708;2023-04-25T07:32:00;5.2;;5.2;4.9;;;;;;
67700;SPS30;55380;54.156;18.708;2023-04-25T07:34:00;5.5;;5.5;5.2;;;;;;
67700;SPS30;55380;54.156;18.708;2023-04-25T07:36:00;5.1;;5.1;4.8;;;;;;
67700;SPS30;55380;54.156;18.708;2023-04-25T07:38:01;5.3;;5.3;5.0;;;;;;
67700;SPS30;55380;54.156;18.708;2023-04-25T07:40:00;4.2;;4.2;4.0;;;;;;
67700;SPS30;55380;54.156;18.708;2023-04-25T07:42:00;4.5;;4.5;4.3;;;;;;
67700;SPS30;55380;54.156;18.708;2023-04-25T07:44:00;4.2;;4.2;4.0;;;;;;
67700;SPS30;55380;54.156;18.708;2023-04-25T07:46:00;4.3;;4.3;4.1;;;;;;
67700;SPS30;55380;54.156;18.708;2023-04-25T07:48:00;4.2;;4.2;4.0;;;;;;
67700;SPS30;55380;54.156;18.708;2023-04-25T07:50:00;3.6;;3.6;3.4;;;;;;
67700;SPS30;55380;54.156;18.708;2023-04-25T07:52:00;3.6;;3.6;3.4;;;;;;
67700;SPS30;55380;54.156;18.708;2023-04-25T07:54:00;3.9;;3.9;3.6;;;;;;
67700;SPS30;55380;54.156;18.708;2023-04-25T07:56:00;4.1;;4.1;3.9;;;;;;
67700;SPS30;55380;54.156;18.708;2023-04-25T07:58:00;3.9;;3.9;3.7;;;;;;
67700;SPS30;55380;54.156;18.708;2023-04-25T08:00:00;5.0;;5.0;4.7;;;;;;
67700;SPS30;55380;54.156;18.708;2023-04-25T08:02:00;4.7;;4.7;4.4;;;;;;
67700;SPS30;55380;54.156;18.708;2023-04-25T08:04:00;7.9;;7.9;7.5;;;;;;
67700;SPS30;55380;54.156;18.708;2023-04-25T08:06:00;4.0;;4.0;3.8;;;;;;
67700;SPS30;55380;54.156;18.708;2023-04-25T08:08:00;3.8;;3.8;3.6;;;;;;
67700;SPS30;55380;54.156;18.708;2023-04-25T08:10:00;3.8;;3.8;3.6;;;;;;
67700;SPS30;55380;54.156;18.708;2023-04-25T08:12:00;3.9;;3.9;3.7;;;;;;
67700;SPS30;55380;54.156;18.708;2023-04-25T08:14:00;4.6;;4.6;4.3;;;;;;
67700;SPS30;55380;54.156;18.708;2023-04-25T08:16:00;4.8;;4.8;4.6;;;;;;
67700;SPS30;55380;54.156;18.708;2023-04-25T08:18:00;5.7;;5.7;5.4;;;;;;
67700;SPS30;55380;54.156;18.708;2023-04-25T08:20:00;4.0;;4.0;3.7;;;;;;
67700;SPS30;55380;54.156;18.708;2023-04-25T08:22:00;4.4;;4.4;4.1;;;;;;
67700;SPS30;55380;54.156;18.708;2023-04-25T08:24:00;4.4;;4.4;4.1;;;;;;
67700;SPS30;55380;54.156;18.708;2023-04-25T08:26:00;5.3;;5.3;5.0;;;;;;
67700;SPS30;55380;54.156;18.708;2023-04-25T08:28:00;3.7;;3.7;3.5;;;;;;
67700;SPS30;55380;54.156;18.708;2023-04-25T08:30:00;3.9;;3.9;3.7;;;;;;
67700;SPS30;55380;54.156;18.708;2023-04-25T08:32:00;3.9;;3.9;3.7;;;;;;
67700;SPS30;55380;54.156;18.708;2023-04-25T08:34:00;3.8;;3.8;3.6;;;;;;
67700;SPS30;55380;54.156;18.708;2023-04-25T08:36:00;3.6;;3.6;3.4;;;;;;
67700;SPS30;55380;54.156;18.708;2023-04-25T08:38:00;3.8;;3.8;3.6;;;;;;
67700;SPS30;55380;54.156;18.708;2023-04-25T08:40:00;3.5;;3.5;3.3;;;;;;
67700;SPS30;55380;54.156;18.708;2023-04-25T08:42:00;3.4;;3.4;3.2;;;;;;
67700;SPS30;55380;54.156;18.708;2023-04-25T08:44:00;3.2;;3.2;3.0;;;;;;
67700;SPS30;55380;54.156;18.708;2023-04-25T08:46:00;2.9;;2.9;2.8;;;;;;
67700;SPS30;55380;54.156;18.708;2023-04-25T08:48:00;2.6;;2.6;2.4;;;;;;
67700;SPS30;55380;54.156;18.708;2023-04-25T08:50:01;2.9;;2.9;2.7;;;;;;
67700;SPS30;55380;54.156;18.708;2023-04-25T08:52:00;2.7;;2.7;2.6;;;;;;
67700;SPS30;55380;54.156;18.708;2023-04-25T08:54:04;2.8;;2.8;2.6;;;;;;
67700;SPS30;55380;54.156;18.708;2023-04-25T08:56:00;2.7;;2.7;2.5;;;;;;
67700;SPS30;55380;54.156;18.708;2023-04-25T08:58:00;2.6;;2.6;2.4;;;;;;
67700;SPS30;55380;54.156;18.708;2023-04-25T09:00:00;2.5;;2.5;2.4;;;;;;
67700;SPS30;55380;54.156;18.708;2023-04-25T09:02:00;2.5;;2.5;2.4;;;;;;
67700;SPS30;55380;54.156;18.708;2023-04-25T09:04:00;2.3;;2.3;2.2;;;;;;
67700;SPS30;55380;54.156;18.708;2023-04-25T09:06:00;2.7;;2.7;2.5;;;;;;
67700;SPS30;55380;54.156;18.708;2023-04-25T09:08:00;5.1;;5.1;4.8;;;;;;
67700;SPS30;55380;54.156;18.708;2023-04-25T09:10:00;3.9;;3.9;3.7;;;;;;
67700;SPS30;55380;54.156;18.708;2023-04-25T09:12:00;2.8;;2.8;2.6;;;;;;
67700;SPS30;55380;54.156;18.708;2023-04-25T09:16:00;2.5;;2.5;2.4;;;;;;
67700;SPS30;55380;54.156;18.708;2023-04-25T09:18:00;3.0;;3.0;2.8;;;;;;
67700;SPS30;55380;54.156;18.708;2023-04-25T09:20:06;3.1;;3.1;2.9;;;;;;
67700;SPS30;55380;54.156;18.708;2023-04-25T09:22:01;2.6;;2.6;2.5;;;;;;
67700;SPS30;55380;54.156;18.708;2023-04-25T09:24:00;2.6;;2.6;2.5;;;;;;
67700;SPS30;55380;54.156;18.708;2023-04-25T09:26:00;2.7;;2.7;2.5;;;;;;
67700;SPS30;55380;54.156;18.708;2023-04-25T09:28:00;2.6;;2.6;2.5;;;;;;
67700;SPS30;55380;54.156;18.708;2023-04-25T09:30:00;2.3;;2.3;2.2;;;;;;
67700;SPS30;55380;54.156;18.708;2023-04-25T09:34:00;2.9;;2.9;2.7;;;;;;
67700;SPS30;55380;54.156;18.708;2023-04-25T09:36:02;2.9;;2.9;2.7;;;;;;
67700;SPS30;55380;54.156;18.708;2023-04-25T09:38:00;2.8;;2.8;2.7;;;;;;
67700;SPS30;55380;54.156;18.708;2023-04-25T09:40:00;2.7;;2.7;2.6;;;;;;
67700;SPS30;55380;54.156;18.708;2023-04-25T09:42:00;2.4;;2.4;2.3;;;;;;
67700;SPS30;55380;54.156;18.708;2023-04-25T09:44:00;2.7;;2.7;2.6;;;;;;
67700;SPS30;55380;54.156;18.708;2023-04-25T09:46:00;2.8;;2.8;2.7;;;;;;
67700;SPS30;55380;54.156;18.708;2023-04-25T09:48:03;2.4;;2.4;2.2;;;;;;
67700;SPS30;55380;54.156;18.708;2023-04-25T09:50:00;2.3;;2.3;2.2;;;;;;
67700;SPS30;55380;54.156;18.708;2023-04-25T09:52:00;2.2;;2.2;2.1;;;;;;
67700;SPS30;55380;54.156;18.708;2023-04-25T09:54:00;2.6;;2.6;2.4;;;;;;
67700;SPS30;55380;54.156;18.708;2023-04-25T09:56:00;2.3;;2.3;2.2;;;;;;
67700;SPS30;55380;54.156;18.708;2023-04-25T09:58:01;2.6;;2.6;2.5;;;;;;
67700;SPS30;55380;54.156;18.708;2023-04-25T10:00:00;2.4;;2.4;2.3;;;;;;
67700;SPS30;55380;54.156;18.708;2023-04-25T10:02:00;2.4;;2.4;2.2;;;;;;
67700;SPS30;55380;54.156;18.708;2023-04-25T10:04:00;2.4;;2.4;2.2;;;;;;
67700;SPS30;55380;54.156;18.708;2023-04-25T10:06:00;2.5;;2.5;2.3;;;;;;
67700;SPS30;55380;54.156;18.708;2023-04-25T10:08:01;2.4;;2.4;2.3;;;;;;
67700;SPS30;55380;54.156;18.708;2023-04-25T10:10:00;2.4;;2.4;2.2;;;;;;
67700;SPS30;55380;54.156;18.708;2023-04-25T10:12:00;2.2;;2.2;2.1;;;;;;
67700;SPS30;55380;54.156;18.708;2023-04-25T10:14:00;2.6;;2.6;2.5;;;;;;
67700;SPS30;55380;54.156;18.708;2023-04-25T10:16:01;2.4;;2.4;2.3;;;;;;
67700;SPS30;55380;54.156;18.708;2023-04-25T10:18:00;2.8;;2.8;2.7;;;;;;
67700;SPS30;55380;54.156;18.708;2023-04-25T10:20:00;3.3;;3.3;3.2;;;;;;
67700;SPS30;55380;54.156;18.708;2023-04-25T10:22:03;6.0;;6.0;5.7;;;;;;
67700;SPS30;55380;54.156;18.708;2023-04-25T10:24:00;6.0;;6.0;5.6;;;;;;
67700;SPS30;55380;54.156;18.708;2023-04-25T10:26:00;3.8;;3.8;3.6;;;;;;
67700;SPS30;55380;54.156;18.708;2023-04-25T10:28:00;3.7;;3.7;3.5;;;;;;
67700;SPS30;55380;54.156;18.708;2023-04-25T10:30:00;3.8;;3.8;3.6;;;;;;
67700;SPS30;55380;54.156;18.708;2023-04-25T10:32:00;4.5;;4.5;4.2;;;;;;
67700;SPS30;55380;54.156;18.708;2023-04-25T10:34:00;4.2;;4.2;4.0;;;;;;
67700;SPS30;55380;54.156;18.708;2023-04-25T10:36:08;3.7;;3.7;3.5;;;;;;
67700;SPS30;55380;54.156;18.708;2023-04-25T10:38:00;3.6;;3.6;3.4;;;;;;
67700;SPS30;55380;54.156;18.708;2023-04-25T10:40:04;3.9;;3.9;3.6;;;;;;
67700;SPS30;55380;54.156;18.708;2023-04-25T10:42:01;4.3;;4.3;4.1;;;;;;
67700;SPS30;55380;54.156;18.708;2023-04-25T10:44:00;4.3;;4.3;4.0;;;;;;
67700;SPS30;55380;54.156;18.708;2023-04-25T10:46:00;4.2;;4.2;4.0;;;;;;
67700;SPS30;55380;54.156;18.708;2023-04-25T10:48:00;4.3;;4.3;4.1;;;;;;
67700;SPS30;55380;54.156;18.708;2023-04-25T10:50:04;4.4;;4.4;4.2;;;;;;
67700;SPS30;55380;54.156;18.708;2023-04-25T10:54:00;4.2;;4.2;4.0;;;;;;
67700;SPS30;55380;54.156;18.708;2023-04-25T10:56:00;3.7;;3.7;3.5;;;;;;
67700;SPS30;55380;54.156;18.708;2023-04-25T10:58:00;3.4;;3.4;3.2;;;;;;
67700;SPS30;55380;54.156;18.708;2023-04-25T11:00:01;3.6;;3.6;3.4;;;;;;
67700;SPS30;55380;54.156;18.708;2023-04-25T11:02:00;3.3;;3.3;3.1;;;;;;
67700;SPS30;55380;54.156;18.708;2023-04-25T11:04:00;3.0;;3.0;2.9;;;;;;
67700;SPS30;55380;54.156;18.708;2023-04-25T11:06:00;3.1;;3.1;3.0;;;;;;
67700;SPS30;55380;54.156;18.708;2023-04-25T11:08:00;3.2;;3.2;3.0;;;;;;
67700;SPS30;55380;54.156;18.708;2023-04-25T11:10:01;3.1;;3.1;2.9;;;;;;
67700;SPS30;55380;54.156;18.708;2023-04-25T11:12:00;3.2;;3.2;3.1;;;;;;
67700;SPS30;55380;54.156;18.708;2023-04-25T11:14:00;3.4;;3.4;3.2;;;;;;
67700;SPS30;55380;54.156;18.708;2023-04-25T11:16:00;3.3;;3.3;3.1;;;;;;